Bayside, California
Current Conditions -  °F | °C
As of 10:53 PM on Friday 24 Oct 2014 (Local Time) from KACV Reporting Station
Clear Clear  
Wind Chill: 64°   Ceiling: Unl
Heat Index: 64°   Visibility: 10mi
Dew Point: 51°   Wind: 14mph
Humidity: 63%   Direction: 140°SE
Pressure: 29.67"   Gusts: 23mph
Location:  40.84°N, 124.06°W
Report Text: KACV 250553Z AUTO 14012G20KT 10SM CLR 18/11 A2967 RMK AO2 PK WND 15026/0533 SLP049 T01780106 10206 20178 58008
Loading
Personal Weather Stations






























Interactive Weather Map
Tropical Storm Tracking
New forecast layout! Learn more

10-Day Weather Forecast

Advertisements
Track Severe Weather on mobile